createdAt,value
2023-12-09T00:00:28.559Z,-1.08
2023-12-09T00:03:01.289Z,-1.10
2023-12-09T00:04:55.656Z,-1.12
2023-12-09T00:06:50.887Z,-1.12
2023-12-09T00:08:45.067Z,-1.14
2023-12-09T00:10:39.130Z,-1.15
2023-12-09T00:12:33.093Z,-1.16
2023-12-09T00:14:28.266Z,-1.18
2023-12-09T00:16:22.138Z,-1.19
2023-12-09T00:18:18.595Z,-1.20
2023-12-09T00:20:12.851Z,-1.21
2023-12-09T00:22:07.019Z,-1.22
2023-12-09T00:24:01.133Z,-1.22
2023-12-09T00:25:55.283Z,-1.24
2023-12-09T00:27:49.324Z,-1.26
2023-12-09T00:29:45.909Z,-1.27
2023-12-09T00:31:39.060Z,-1.27
2023-12-09T00:33:32.210Z,-1.26
2023-12-09T00:35:25.364Z,-1.25
2023-12-09T00:37:18.517Z,-1.24
2023-12-09T00:39:11.698Z,-1.23
2023-12-09T00:41:05.879Z,-1.23
2023-12-09T00:42:59.000Z,-1.21
2023-12-09T00:44:52.095Z,-1.22
2023-12-09T00:46:45.308Z,-1.21
2023-12-09T00:48:38.452Z,-1.21
2023-12-09T00:50:31.761Z,-1.21
2023-12-09T00:52:25.613Z,-1.21
2023-12-09T00:54:19.854Z,-1.21
2023-12-09T00:56:14.351Z,-1.20
2023-12-09T00:58:07.722Z,-1.21
2023-12-09T01:00:00.966Z,-1.21
2023-12-09T01:01:54.264Z,-1.21
2023-12-09T01:03:47.495Z,-1.21
2023-12-09T01:05:40.789Z,-1.21
2023-12-09T01:07:34.294Z,-1.21
2023-12-09T01:09:27.439Z,-1.21
2023-12-09T01:11:21.467Z,-1.21
2023-12-09T01:13:15.190Z,-1.22
2023-12-09T01:15:08.928Z,-1.22
2023-12-09T01:17:02.723Z,-1.22
2023-12-09T01:18:55.850Z,-1.21
2023-12-09T01:20:49.045Z,-1.21
2023-12-09T01:22:42.080Z,-1.20
2023-12-09T01:24:35.170Z,-1.20
2023-12-09T01:26:28.277Z,-1.19
2023-12-09T01:28:21.447Z,-1.18
2023-12-09T01:30:14.892Z,-1.19
2023-12-09T01:32:08.267Z,-1.18
2023-12-09T01:34:02.456Z,-1.18
2023-12-09T01:35:56.442Z,-1.18
2023-12-09T01:37:49.551Z,-1.17
2023-12-09T01:39:42.705Z,-1.17
2023-12-09T01:41:35.860Z,-1.17
2023-12-09T01:43:29.013Z,-1.16
2023-12-09T01:45:22.188Z,-1.15
2023-12-09T01:47:15.842Z,-1.15
2023-12-09T01:49:09.329Z,-1.14
2023-12-09T01:51:02.813Z,-1.14
2023-12-09T01:52:56.012Z,-1.13
2023-12-09T01:54:49.689Z,-1.13
2023-12-09T01:56:42.823Z,-1.13
2023-12-09T01:58:39.605Z,-1.13
2023-12-09T02:00:33.287Z,-1.12
2023-12-09T02:02:26.966Z,-1.12
2023-12-09T02:04:20.902Z,-1.12
2023-12-09T02:06:14.152Z,-1.12
2023-12-09T02:08:07.271Z,-1.12
2023-12-09T02:10:00.354Z,-1.10
2023-12-09T02:12:12.370Z,-1.11
2023-12-09T02:14:14.276Z,-1.12
2023-12-09T02:16:15.735Z,-1.12
2023-12-09T02:18:09.767Z,-1.12
2023-12-09T02:20:04.797Z,-1.12
2023-12-09T02:22:05.349Z,-1.12
2023-12-09T02:23:58.497Z,-1.12
2023-12-09T02:25:59.716Z,-1.11
2023-12-09T02:27:58.860Z,-1.11
2023-12-09T02:30:00.750Z,-1.09
2023-12-09T02:32:04.398Z,-1.10
2023-12-09T02:33:59.575Z,-1.10
2023-12-09T02:35:56.625Z,-1.10
2023-12-09T02:37:51.092Z,-1.08
2023-12-09T02:39:44.244Z,-1.08
2023-12-09T02:41:37.912Z,-1.08
2023-12-09T02:43:31.789Z,-1.08
2023-12-09T02:45:25.002Z,-1.08
2023-12-09T02:47:18.310Z,-1.08
2023-12-09T02:49:12.492Z,-1.07
2023-12-09T02:51:06.863Z,-1.06
2023-12-09T02:52:59.905Z,-1.07
2023-12-09T02:54:53.175Z,-1.06
2023-12-09T02:56:46.219Z,-1.05
2023-12-09T02:58:39.260Z,-1.04
2023-12-09T03:00:32.256Z,-1.03
2023-12-09T03:02:25.989Z,-1.03
2023-12-09T03:04:27.058Z,-1.03
2023-12-09T03:06:20.183Z,-1.02
2023-12-09T03:08:13.317Z,-1.04
2023-12-09T03:10:07.290Z,-1.03
2023-12-09T03:12:00.489Z,-1.03
2023-12-09T03:13:53.708Z,-1.02
2023-12-09T03:15:46.854Z,-1.02
2023-12-09T03:17:40.281Z,-1.01
2023-12-09T03:19:33.878Z,-1.01
2023-12-09T03:21:27.236Z,-1.01
2023-12-09T03:23:20.386Z,-1.02
2023-12-09T03:25:13.433Z,-1.02
2023-12-09T03:27:06.522Z,-1.02
2023-12-09T03:28:59.738Z,-1.02
2023-12-09T03:30:52.996Z,-1.02
2023-12-09T03:32:46.075Z,-1.02
2023-12-09T03:34:39.279Z,-1.02
2023-12-09T03:36:32.520Z,-1.02
2023-12-09T03:38:25.713Z,-1.02
2023-12-09T03:40:18.775Z,-1.01
2023-12-09T03:42:11.963Z,-1.01
2023-12-09T03:44:05.374Z,-1.02
2023-12-09T03:45:59.653Z,-1.02
2023-12-09T03:47:52.936Z,-1.01
2023-12-09T03:49:46.224Z,-1.01
2023-12-09T03:51:39.432Z,-1.02
2023-12-09T03:53:32.575Z,-1.02
2023-12-09T03:55:25.622Z,-1.01
2023-12-09T03:57:19.204Z,-1.01
2023-12-09T03:59:13.088Z,-1.01
2023-12-09T04:01:06.835Z,-1.01
2023-12-09T04:03:00.319Z,-1.01
2023-12-09T04:04:53.638Z,-1.00
2023-12-09T04:06:46.704Z,-1.00
2023-12-09T04:08:39.843Z,-1.00
2023-12-09T04:10:32.996Z,-1.00
2023-12-09T04:12:26.335Z,-0.99
2023-12-09T04:14:19.624Z,-0.99
2023-12-09T04:16:12.765Z,-0.99
2023-12-09T04:18:07.092Z,-0.99
2023-12-09T04:20:00.653Z,-0.98
2023-12-09T04:21:53.966Z,-0.98
2023-12-09T04:23:47.125Z,-0.98
2023-12-09T04:25:40.270Z,-0.98
2023-12-09T04:27:34.385Z,-0.97
2023-12-09T04:29:27.563Z,-0.96
2023-12-09T04:31:20.755Z,-0.95
2023-12-09T04:33:13.926Z,-0.95
2023-12-09T04:35:07.889Z,-0.94
2023-12-09T04:37:01.749Z,-0.93
2023-12-09T04:38:54.823Z,-0.91
2023-12-09T04:40:48.162Z,-0.91
2023-12-09T04:42:41.602Z,-0.89
2023-12-09T04:44:34.769Z,-0.88
2023-12-09T04:46:28.678Z,-0.87
2023-12-09T04:48:21.913Z,-0.87
2023-12-09T04:50:15.667Z,-0.86
2023-12-09T04:52:08.812Z,-0.86
2023-12-09T04:54:01.982Z,-0.84
2023-12-09T04:55:55.063Z,-0.83
2023-12-09T04:57:48.957Z,-0.82
2023-12-09T04:59:42.042Z,-0.82
2023-12-09T05:01:35.193Z,-0.81
2023-12-09T05:03:28.289Z,-0.81
2023-12-09T05:05:21.621Z,-0.80
2023-12-09T05:07:15.878Z,-0.79
2023-12-09T05:09:10.092Z,-0.79
2023-12-09T05:11:03.316Z,-0.78
2023-12-09T05:12:56.372Z,-0.78
2023-12-09T05:14:50.056Z,-0.77
2023-12-09T05:16:43.139Z,-0.77
2023-12-09T05:18:36.648Z,-0.76
2023-12-09T05:20:31.400Z,-0.75
2023-12-09T05:22:25.169Z,-0.74
2023-12-09T05:24:19.703Z,-0.73
2023-12-09T05:26:23.300Z,-0.73
2023-12-09T05:28:16.641Z,-0.72
2023-12-09T05:30:10.563Z,-0.71
2023-12-09T05:32:04.379Z,-0.73
2023-12-09T05:33:57.616Z,-0.71
2023-12-09T05:35:50.891Z,-0.71
2023-12-09T05:37:43.983Z,-0.70
2023-12-09T05:39:37.375Z,-0.70
2023-12-09T05:41:30.555Z,-0.70
2023-12-09T05:43:23.705Z,-0.69
2023-12-09T05:45:16.839Z,-0.67
2023-12-09T05:47:10.015Z,-0.67
2023-12-09T05:49:03.985Z,-0.67
2023-12-09T05:50:57.159Z,-0.65
2023-12-09T05:52:50.296Z,-0.63
2023-12-09T05:54:43.554Z,-0.63
2023-12-09T05:56:36.801Z,-0.62
2023-12-09T05:58:29.861Z,-0.62
2023-12-09T06:00:23.060Z,-0.61
2023-12-09T06:02:16.055Z,-0.59
2023-12-09T06:04:09.459Z,-0.59
2023-12-09T06:06:03.003Z,-0.58
2023-12-09T06:07:56.243Z,-0.57
2023-12-09T06:09:49.460Z,-0.57
2023-12-09T06:11:42.751Z,-0.55
2023-12-09T06:13:35.998Z,-0.53
2023-12-09T06:15:29.068Z,-0.52
2023-12-09T06:17:22.371Z,-0.53
2023-12-09T06:19:15.767Z,-0.52
2023-12-09T06:21:08.933Z,-0.52
2023-12-09T06:23:02.074Z,-0.50
2023-12-09T06:24:55.440Z,-0.49
2023-12-09T06:26:48.647Z,-0.47
2023-12-09T06:28:41.739Z,-0.47
2023-12-09T06:30:34.950Z,-0.47
2023-12-09T06:32:28.446Z,-0.46
2023-12-09T06:34:21.979Z,-0.44
2023-12-09T06:36:15.379Z,-0.45
2023-12-09T06:38:09.576Z,-0.43
2023-12-09T06:40:02.658Z,-0.42
2023-12-09T06:41:55.802Z,-0.42
2023-12-09T06:43:48.801Z,-0.40
2023-12-09T06:45:42.069Z,-0.39
2023-12-09T06:47:36.494Z,-0.38
2023-12-09T06:49:29.859Z,-0.37
2023-12-09T06:51:23.110Z,-0.37
2023-12-09T06:53:16.514Z,-0.36
2023-12-09T06:55:09.663Z,-0.36
2023-12-09T06:57:02.836Z,-0.34
2023-12-09T06:58:55.922Z,-0.34
2023-12-09T07:00:49.251Z,-0.33
2023-12-09T07:02:52.946Z,-0.32
2023-12-09T07:04:52.328Z,-0.31
2023-12-09T07:06:45.475Z,-0.30
2023-12-09T07:08:38.532Z,-0.29
2023-12-09T07:10:31.587Z,-0.28
2023-12-09T07:12:24.852Z,-0.27
2023-12-09T07:14:19.121Z,-0.27
2023-12-09T07:16:13.692Z,-0.25
2023-12-09T07:18:06.926Z,-0.24
2023-12-09T07:20:01.030Z,-0.22
2023-12-09T07:21:54.190Z,-0.19
2023-12-09T07:23:47.245Z,-0.18
2023-12-09T07:25:40.293Z,-0.16
2023-12-09T07:27:33.662Z,-0.16
2023-12-09T07:29:28.565Z,-0.14
2023-12-09T07:31:22.718Z,-0.13
2023-12-09T07:33:16.180Z,-0.11
2023-12-09T07:35:10.314Z,-0.11
2023-12-09T07:37:03.612Z,-0.09
2023-12-09T07:38:56.783Z,-0.07
2023-12-09T07:40:49.911Z,-0.06
2023-12-09T07:42:42.974Z,-0.04
2023-12-09T07:44:36.119Z,-0.02
2023-12-09T07:46:29.128Z,-0.01
2023-12-09T07:48:22.376Z,-0.01
2023-12-09T07:50:15.691Z,-0.00
2023-12-09T07:52:08.796Z,0.01
2023-12-09T07:54:01.798Z,0.03
2023-12-09T07:55:54.884Z,0.04
2023-12-09T07:57:47.978Z,0.05
2023-12-09T07:59:41.343Z,0.06
2023-12-09T08:01:35.360Z,0.07
2023-12-09T08:03:30.559Z,0.08
2023-12-09T08:05:25.238Z,0.09
2023-12-09T08:07:18.354Z,0.10
2023-12-09T08:09:11.759Z,0.11
2023-12-09T08:11:05.484Z,0.12
2023-12-09T08:12:58.736Z,0.13
2023-12-09T08:14:51.795Z,0.14
2023-12-09T08:16:44.887Z,0.15
2023-12-09T08:18:39.225Z,0.16
2023-12-09T08:20:32.519Z,0.18
2023-12-09T08:22:25.789Z,0.19
2023-12-09T08:24:19.117Z,0.21
2023-12-09T08:26:17.942Z,0.21
2023-12-09T08:28:11.957Z,0.22
2023-12-09T08:30:11.864Z,0.22
2023-12-09T08:32:05.935Z,0.24
2023-12-09T08:33:59.124Z,0.25
2023-12-09T08:35:52.446Z,0.27
2023-12-09T08:37:45.487Z,0.28
2023-12-09T08:39:41.110Z,0.30
2023-12-09T08:41:34.256Z,0.32
2023-12-09T08:43:27.313Z,0.34
2023-12-09T08:45:20.623Z,0.36
2023-12-09T08:47:13.823Z,0.37
2023-12-09T08:49:07.306Z,0.38
2023-12-09T08:51:00.784Z,0.40
2023-12-09T08:52:54.645Z,0.41
2023-12-09T08:54:48.523Z,0.42
2023-12-09T08:56:42.075Z,0.43
2023-12-09T08:58:36.013Z,0.45
2023-12-09T09:00:29.199Z,0.47
2023-12-09T09:02:22.928Z,0.50
2023-12-09T09:04:16.086Z,0.51
2023-12-09T09:06:09.300Z,0.53
2023-12-09T09:08:02.391Z,0.57
2023-12-09T09:09:55.441Z,0.58
2023-12-09T09:11:48.595Z,0.61
2023-12-09T09:13:41.748Z,0.64
2023-12-09T09:15:35.047Z,0.67
2023-12-09T09:17:28.374Z,0.69
2023-12-09T09:19:22.352Z,0.71
2023-12-09T09:21:16.670Z,0.74
2023-12-09T09:23:11.152Z,0.74
2023-12-09T09:25:04.768Z,0.76
2023-12-09T09:26:57.849Z,0.77
2023-12-09T09:28:51.008Z,0.78
2023-12-09T09:30:44.447Z,0.79
2023-12-09T09:32:37.714Z,0.80
2023-12-09T09:34:30.975Z,0.82
2023-12-09T09:36:24.531Z,0.83
2023-12-09T09:38:18.379Z,0.84
2023-12-09T09:40:13.276Z,0.85
2023-12-09T09:42:17.267Z,0.89
2023-12-09T09:44:15.340Z,0.94
2023-12-09T09:46:08.746Z,0.97
2023-12-09T09:48:07.292Z,1.00
2023-12-09T09:50:02.488Z,1.04
2023-12-09T09:51:58.501Z,1.08
2023-12-09T09:54:01.451Z,1.10
2023-12-09T09:55:55.620Z,1.12
2023-12-09T09:57:50.152Z,1.14
2023-12-09T09:59:43.499Z,1.16
2023-12-09T10:01:38.919Z,1.18
2023-12-09T10:03:32.210Z,1.19
2023-12-09T10:05:25.458Z,1.20
2023-12-09T10:07:19.938Z,1.19
2023-12-09T10:09:13.753Z,1.19
2023-12-09T10:11:06.876Z,1.20
2023-12-09T10:13:00.186Z,1.22
2023-12-09T10:14:53.358Z,1.22
2023-12-09T10:16:46.894Z,1.22
2023-12-09T10:18:45.988Z,1.23
2023-12-09T10:20:39.187Z,1.23
2023-12-09T10:22:32.294Z,1.23
2023-12-09T10:24:25.371Z,1.24
2023-12-09T10:26:18.909Z,1.25
2023-12-09T10:28:12.063Z,1.26
2023-12-09T10:30:07.070Z,1.27
2023-12-09T10:32:02.652Z,1.27
2023-12-09T10:33:56.897Z,1.29
2023-12-09T10:35:50.815Z,1.32
2023-12-09T10:37:44.479Z,1.33
2023-12-09T10:39:37.803Z,1.35
2023-12-09T10:41:30.992Z,1.38
2023-12-09T10:43:24.879Z,1.40
2023-12-09T10:45:18.048Z,1.42
2023-12-09T10:47:11.171Z,1.44
2023-12-09T10:49:04.368Z,1.46
2023-12-09T10:50:57.800Z,1.47
2023-12-09T10:52:50.930Z,1.50
2023-12-09T10:54:44.038Z,1.51
2023-12-09T10:56:37.953Z,1.53
2023-12-09T10:58:33.327Z,1.54
2023-12-09T11:00:27.706Z,1.55
2023-12-09T11:02:22.462Z,1.57
2023-12-09T11:04:16.429Z,1.57
2023-12-09T11:06:10.661Z,1.58
2023-12-09T11:08:04.767Z,1.57
2023-12-09T11:09:57.915Z,1.56
2023-12-09T11:11:50.957Z,1.58
2023-12-09T11:13:47.490Z,1.59
2023-12-09T11:15:41.115Z,1.60
2023-12-09T11:17:39.109Z,1.61
2023-12-09T11:19:33.410Z,1.63
2023-12-09T11:21:30.622Z,1.64
2023-12-09T11:23:23.806Z,1.64
2023-12-09T11:25:20.065Z,1.65
2023-12-09T11:27:39.554Z,1.67
2023-12-09T11:29:32.864Z,1.70
2023-12-09T11:31:36.766Z,1.73
2023-12-09T11:33:30.197Z,2.02
2023-12-09T11:35:26.499Z,2.06
2023-12-09T11:37:20.115Z,2.03
2023-12-09T11:39:21.833Z,2.01
2023-12-09T11:41:16.354Z,1.98
2023-12-09T11:43:10.161Z,1.95
2023-12-09T11:45:05.241Z,1.94
2023-12-09T11:46:58.684Z,1.94
2023-12-09T11:48:52.573Z,1.94
2023-12-09T11:50:45.806Z,1.94
2023-12-09T11:52:38.958Z,1.93
2023-12-09T11:54:32.140Z,1.93
2023-12-09T11:56:26.211Z,1.93
2023-12-09T11:58:19.437Z,1.94
2023-12-09T12:00:13.084Z,1.95
2023-12-09T12:02:06.510Z,1.95
2023-12-09T12:04:00.552Z,1.94
2023-12-09T12:05:53.845Z,1.95
2023-12-09T12:07:47.411Z,1.96
2023-12-09T12:09:40.874Z,1.96
2023-12-09T12:11:35.037Z,1.95
2023-12-09T12:13:29.659Z,1.96
2023-12-09T12:15:26.265Z,1.97
2023-12-09T12:17:19.489Z,1.98
2023-12-09T12:19:12.694Z,1.99
2023-12-09T12:21:11.479Z,1.99
2023-12-09T12:23:08.054Z,2.00
2023-12-09T12:25:05.599Z,2.00
2023-12-09T12:26:58.703Z,2.01
2023-12-09T12:28:53.360Z,2.02
2023-12-09T12:30:46.551Z,2.04
2023-12-09T12:32:39.802Z,2.04
2023-12-09T12:34:33.310Z,2.04
2023-12-09T12:36:26.618Z,2.04
2023-12-09T12:38:22.083Z,2.06
2023-12-09T12:40:15.536Z,2.07
2023-12-09T12:42:09.958Z,2.07
2023-12-09T12:44:04.576Z,2.07
2023-12-09T12:46:00.224Z,2.08
2023-12-09T12:47:54.399Z,2.08
2023-12-09T12:49:47.791Z,2.08
2023-12-09T12:51:41.152Z,2.08
2023-12-09T12:53:35.081Z,2.07
2023-12-09T12:55:28.261Z,2.06
2023-12-09T12:57:24.741Z,2.05
2023-12-09T12:59:18.441Z,2.04
2023-12-09T13:01:11.974Z,2.00
2023-12-09T13:03:08.665Z,1.97
2023-12-09T13:05:02.138Z,1.95
2023-12-09T13:06:55.286Z,1.94
2023-12-09T13:08:48.440Z,1.91
2023-12-09T13:10:41.861Z,1.90
2023-12-09T13:12:35.519Z,1.89
2023-12-09T13:14:28.718Z,1.88
2023-12-09T13:16:22.336Z,1.86
2023-12-09T13:18:16.611Z,1.86
2023-12-09T13:20:11.913Z,1.85
2023-12-09T13:22:06.915Z,1.85
2023-12-09T13:24:00.319Z,1.84
2023-12-09T13:25:54.041Z,1.83
2023-12-09T13:27:47.717Z,1.82
2023-12-09T13:29:41.373Z,1.80
2023-12-09T13:31:34.566Z,1.80
2023-12-09T13:33:27.772Z,1.79
2023-12-09T13:35:21.054Z,1.78
2023-12-09T13:37:14.816Z,1.81
2023-12-09T13:39:13.118Z,2.03
2023-12-09T13:41:06.872Z,2.36
2023-12-09T13:43:00.097Z,2.58
2023-12-09T13:44:53.256Z,2.73
2023-12-09T13:46:46.712Z,2.96
2023-12-09T13:48:39.936Z,3.11
2023-12-09T13:50:33.614Z,3.07
2023-12-09T13:52:33.578Z,3.00
2023-12-09T13:54:27.139Z,2.89
2023-12-09T13:56:21.565Z,2.76
2023-12-09T13:58:14.953Z,2.67
2023-12-09T14:00:09.928Z,2.57
2023-12-09T14:02:04.370Z,2.49
2023-12-09T14:03:58.428Z,2.41
2023-12-09T14:05:53.168Z,2.34
2023-12-09T14:07:47.373Z,2.27
2023-12-09T14:09:40.992Z,2.20
2023-12-09T14:11:34.705Z,2.14
2023-12-09T14:13:29.436Z,2.08
2023-12-09T14:15:25.730Z,2.04
2023-12-09T14:17:20.299Z,1.99
2023-12-09T14:19:14.009Z,1.95
2023-12-09T14:21:07.855Z,1.91
2023-12-09T14:23:31.553Z,1.86
2023-12-09T14:25:26.943Z,1.81
2023-12-09T14:27:20.410Z,1.78
2023-12-09T14:29:14.148Z,1.73
2023-12-09T14:31:07.725Z,1.70
2023-12-09T14:33:01.465Z,1.68
2023-12-09T14:34:55.690Z,1.65
2023-12-09T14:36:49.486Z,1.64
2023-12-09T14:38:43.702Z,1.65
2023-12-09T14:40:36.943Z,1.64
2023-12-09T14:42:31.736Z,1.64
2023-12-09T14:44:25.526Z,1.64
2023-12-09T14:46:18.874Z,1.63
2023-12-09T14:48:18.309Z,1.63
2023-12-09T14:50:14.378Z,1.61
2023-12-09T14:52:08.255Z,1.60
2023-12-09T14:54:02.242Z,1.61
2023-12-09T14:55:55.972Z,1.61
2023-12-09T14:57:49.757Z,1.60
2023-12-09T14:59:43.317Z,1.60
2023-12-09T15:01:36.880Z,1.59
2023-12-09T15:03:30.380Z,1.59
2023-12-09T15:05:23.804Z,1.59
2023-12-09T15:07:17.523Z,1.58
2023-12-09T15:09:11.530Z,1.57
2023-12-09T15:11:05.312Z,1.57
2023-12-09T15:12:58.380Z,1.56
2023-12-09T15:14:52.234Z,1.56
2023-12-09T15:16:45.829Z,1.55
2023-12-09T15:18:42.670Z,1.53
2023-12-09T15:20:35.882Z,1.52
2023-12-09T15:22:29.286Z,1.51
2023-12-09T15:24:23.718Z,1.49
2023-12-09T15:26:20.107Z,1.48
2023-12-09T15:28:13.414Z,1.47
2023-12-09T15:30:08.423Z,1.45
2023-12-09T15:32:01.664Z,1.44
2023-12-09T15:33:55.108Z,1.43
2023-12-09T15:35:48.632Z,1.43
2023-12-09T15:37:43.733Z,1.42
2023-12-09T15:39:40.702Z,1.41
2023-12-09T15:41:34.596Z,1.41
2023-12-09T15:43:27.696Z,1.40
2023-12-09T15:45:20.857Z,1.39
2023-12-09T15:47:14.675Z,1.39
2023-12-09T15:49:08.788Z,1.37
2023-12-09T15:51:03.288Z,1.36
2023-12-09T15:52:56.928Z,1.35
2023-12-09T15:54:50.043Z,1.35
2023-12-09T15:56:43.406Z,1.34
2023-12-09T15:58:36.962Z,1.33
2023-12-09T16:00:30.651Z,1.30
2023-12-09T16:02:24.069Z,1.30
2023-12-09T16:04:17.360Z,1.30
2023-12-09T16:06:10.631Z,1.29
2023-12-09T16:08:04.168Z,1.29
2023-12-09T16:09:58.423Z,1.28
2023-12-09T16:11:51.810Z,1.27
2023-12-09T16:13:45.055Z,1.27
2023-12-09T16:15:38.340Z,1.27
2023-12-09T16:17:31.936Z,1.26
2023-12-09T16:19:25.207Z,1.25
2023-12-09T16:21:23.408Z,1.25
2023-12-09T16:23:17.475Z,1.25
2023-12-09T16:25:10.737Z,1.26
2023-12-09T16:27:04.643Z,1.26
2023-12-09T16:28:57.859Z,1.26
2023-12-09T16:30:51.191Z,1.26
2023-12-09T16:32:45.683Z,1.26
2023-12-09T16:34:45.073Z,1.26
2023-12-09T16:36:38.148Z,1.26
2023-12-09T16:38:35.226Z,1.23
2023-12-09T16:40:35.245Z,1.23
2023-12-09T16:45:25.230Z,1.22
2023-12-09T16:47:18.681Z,1.22
2023-12-09T16:49:11.900Z,1.21
2023-12-09T16:51:05.223Z,1.21
2023-12-09T16:52:58.560Z,1.20
2023-12-09T16:54:51.763Z,1.19
2023-12-09T16:56:45.154Z,1.20
2023-12-09T16:58:38.724Z,1.19
2023-12-09T17:00:31.997Z,1.18
2023-12-09T17:02:27.678Z,1.18
2023-12-09T17:04:21.175Z,1.18
2023-12-09T17:06:14.910Z,1.17
2023-12-09T17:08:08.123Z,1.17
2023-12-09T17:10:01.328Z,1.17
2023-12-09T17:11:54.734Z,1.17
2023-12-09T17:13:47.944Z,1.18
2023-12-09T17:15:41.105Z,1.19
2023-12-09T17:17:34.636Z,1.21
2023-12-09T17:19:28.205Z,1.22
2023-12-09T17:21:21.831Z,1.21
2023-12-09T17:23:17.372Z,1.21
2023-12-09T17:25:13.033Z,1.21
2023-12-09T17:27:11.941Z,1.21
2023-12-09T17:29:07.953Z,1.21
2023-12-09T17:31:02.505Z,1.21
2023-12-09T17:32:55.980Z,1.20
2023-12-09T17:34:49.340Z,1.23
2023-12-09T17:36:42.760Z,1.30
2023-12-09T17:38:35.985Z,1.38
2023-12-09T17:40:30.106Z,1.44
2023-12-09T17:42:42.823Z,1.46
2023-12-09T17:44:59.183Z,1.44
2023-12-09T17:46:54.052Z,1.44
2023-12-09T17:48:49.339Z,1.44
2023-12-09T17:50:42.560Z,1.41
2023-12-09T17:52:37.643Z,1.39
2023-12-09T17:54:31.805Z,1.39
2023-12-09T17:56:25.042Z,1.38
2023-12-09T17:58:18.139Z,1.37
2023-12-09T18:00:14.451Z,1.35
2023-12-09T18:02:09.167Z,1.35
2023-12-09T18:04:02.407Z,1.34
2023-12-09T18:05:56.075Z,1.34
2023-12-09T18:07:49.342Z,1.33
2023-12-09T18:09:45.322Z,1.33
2023-12-09T18:11:38.640Z,1.32
2023-12-09T18:13:31.718Z,1.32
2023-12-09T18:15:24.938Z,1.32
2023-12-09T18:17:18.734Z,1.32
2023-12-09T18:19:11.942Z,1.31
2023-12-09T18:21:05.352Z,1.31
2023-12-09T18:23:04.270Z,1.31
2023-12-09T18:25:03.765Z,1.29
2023-12-09T18:26:59.935Z,1.28
2023-12-09T18:28:57.410Z,1.26
2023-12-09T18:30:53.723Z,1.24
2023-12-09T18:32:50.588Z,1.21
2023-12-09T18:34:46.008Z,1.20
2023-12-09T18:36:42.074Z,1.17
2023-12-09T18:38:36.735Z,1.15
2023-12-09T18:40:29.898Z,1.14
2023-12-09T18:42:23.070Z,1.12
2023-12-09T18:44:21.670Z,1.11
2023-12-09T18:46:18.596Z,1.10
2023-12-09T18:48:15.063Z,1.09
2023-12-09T18:50:10.976Z,1.06
2023-12-09T18:52:06.755Z,1.05
2023-12-09T18:54:02.878Z,1.05
2023-12-09T18:55:58.062Z,1.05
2023-12-09T18:57:53.573Z,1.04
2023-12-09T18:59:48.823Z,1.04
2023-12-09T19:01:43.420Z,1.02
2023-12-09T19:03:39.890Z,1.02
2023-12-09T19:05:35.569Z,1.00
2023-12-09T19:07:30.600Z,0.99
2023-12-09T19:09:27.216Z,0.98
2023-12-09T19:11:22.535Z,0.96
2023-12-09T19:13:17.686Z,0.94
2023-12-09T19:15:13.334Z,0.92
2023-12-09T19:17:08.700Z,0.91
2023-12-09T19:19:04.019Z,0.90
2023-12-09T19:20:58.957Z,0.90
2023-12-09T19:22:53.802Z,0.89
2023-12-09T19:24:49.526Z,0.89
2023-12-09T19:26:45.799Z,0.90
2023-12-09T19:28:41.350Z,0.90
2023-12-09T19:30:36.313Z,0.90
2023-12-09T19:32:31.265Z,0.91
2023-12-09T19:34:26.657Z,0.92
2023-12-09T19:36:21.738Z,0.93
2023-12-09T19:38:17.304Z,0.93
2023-12-09T19:40:12.979Z,0.93
2023-12-09T19:42:08.101Z,0.94
2023-12-09T19:44:01.264Z,0.94
2023-12-09T19:45:54.528Z,0.94
2023-12-09T19:47:47.679Z,0.94
2023-12-09T19:49:42.514Z,0.94
2023-12-09T19:51:35.744Z,0.94
2023-12-09T19:53:29.360Z,0.95
2023-12-09T19:55:22.595Z,0.96
2023-12-09T19:57:17.239Z,0.96
2023-12-09T19:59:10.300Z,0.96
2023-12-09T20:01:03.634Z,0.98
2023-12-09T20:02:56.956Z,0.99
2023-12-09T20:04:50.331Z,1.00
2023-12-09T20:06:44.946Z,1.01
2023-12-09T20:08:39.314Z,1.03
2023-12-09T20:10:32.906Z,1.03
2023-12-09T20:12:26.970Z,1.04
2023-12-09T20:14:20.206Z,1.04
2023-12-09T20:16:13.668Z,1.05
2023-12-09T20:18:07.322Z,1.05
2023-12-09T20:20:00.940Z,1.06
2023-12-09T20:21:54.276Z,1.06
2023-12-09T20:23:48.070Z,1.06
2023-12-09T20:25:42.414Z,1.05
2023-12-09T20:27:36.857Z,1.06
2023-12-09T20:29:30.452Z,1.07
2023-12-09T20:31:24.477Z,1.08
2023-12-09T20:33:18.838Z,1.08
2023-12-09T20:35:12.737Z,1.08
2023-12-09T20:37:06.960Z,1.09
2023-12-09T20:39:01.030Z,1.09
2023-12-09T20:40:54.189Z,1.09
2023-12-09T20:42:48.327Z,1.10
2023-12-09T20:44:42.785Z,1.09
2023-12-09T20:46:36.115Z,1.10
2023-12-09T20:48:29.758Z,1.09
2023-12-09T20:50:24.381Z,1.09
2023-12-09T20:52:18.220Z,1.08
2023-12-09T20:54:12.787Z,1.07
2023-12-09T20:56:09.386Z,1.07
2023-12-09T20:58:04.789Z,1.06
2023-12-09T20:59:58.853Z,1.05
2023-12-09T21:01:56.319Z,1.03
2023-12-09T21:03:51.727Z,1.02
2023-12-09T21:05:46.108Z,1.00
2023-12-09T21:07:40.691Z,0.98
2023-12-09T21:09:34.927Z,0.97
2023-12-09T21:11:29.956Z,0.95
2023-12-09T21:13:25.069Z,0.93
2023-12-09T21:15:21.373Z,0.91
2023-12-09T21:17:15.568Z,0.89
2023-12-09T21:19:11.356Z,0.86
2023-12-09T21:21:06.034Z,0.85
2023-12-09T21:23:01.126Z,0.83
2023-12-09T21:24:56.109Z,0.82
2023-12-09T21:26:49.778Z,0.81
2023-12-09T21:28:43.564Z,0.79
2023-12-09T21:30:37.738Z,0.79
2023-12-09T21:32:31.860Z,0.77
2023-12-09T21:34:25.930Z,0.75
2023-12-09T21:36:19.866Z,0.74
2023-12-09T21:38:14.497Z,0.72
2023-12-09T21:40:09.141Z,0.71
2023-12-09T21:42:02.482Z,0.70
2023-12-09T21:43:55.663Z,0.68
2023-12-09T21:45:50.679Z,0.68
2023-12-09T21:47:44.398Z,0.66
2023-12-09T21:49:44.557Z,0.65
2023-12-09T21:51:42.787Z,0.63
2023-12-09T21:53:37.885Z,0.62
2023-12-09T21:55:32.499Z,0.60
2023-12-09T21:57:25.763Z,0.60
2023-12-09T21:59:19.454Z,0.59
2023-12-09T22:01:14.292Z,0.59
2023-12-09T22:03:08.454Z,0.58
2023-12-09T22:05:02.540Z,0.57
2023-12-09T22:06:56.665Z,0.56
2023-12-09T22:08:50.518Z,0.55
2023-12-09T22:10:44.608Z,0.54
2023-12-09T22:12:41.162Z,0.53
2023-12-09T22:14:35.375Z,0.52
2023-12-09T22:16:28.436Z,0.50
2023-12-09T22:18:21.842Z,0.50
2023-12-09T22:20:15.147Z,0.49
2023-12-09T22:22:08.813Z,0.49
2023-12-09T22:24:03.434Z,0.48
2023-12-09T22:25:58.453Z,0.47
2023-12-09T22:27:52.390Z,0.45
2023-12-09T22:29:46.073Z,0.44
2023-12-09T22:31:46.347Z,0.44
2023-12-09T22:33:41.783Z,0.44
2023-12-09T22:35:38.487Z,0.44
2023-12-09T22:37:33.304Z,0.43
2023-12-09T22:39:28.274Z,0.42
2023-12-09T22:41:22.819Z,0.42
2023-12-09T22:43:16.070Z,0.41
2023-12-09T22:45:10.014Z,0.41
2023-12-09T22:47:03.475Z,0.39
2023-12-09T22:49:00.425Z,0.38
2023-12-09T22:51:00.229Z,0.37
2023-12-09T22:52:54.737Z,0.36
2023-12-09T22:54:47.885Z,0.35
2023-12-09T22:56:41.297Z,0.34
2023-12-09T22:58:35.485Z,0.32
2023-12-09T23:00:29.343Z,0.31
2023-12-09T23:02:23.732Z,0.29
2023-12-09T23:04:17.431Z,0.28
2023-12-09T23:06:12.242Z,0.27
2023-12-09T23:08:06.154Z,0.26
2023-12-09T23:09:59.798Z,0.24
2023-12-09T23:11:53.382Z,0.23
2023-12-09T23:13:47.283Z,0.22
2023-12-09T23:15:41.679Z,0.20
2023-12-09T23:17:36.276Z,0.18
2023-12-09T23:19:30.584Z,0.16
2023-12-09T23:21:23.891Z,0.15
2023-12-09T23:23:23.859Z,0.15
2023-12-09T23:25:17.535Z,0.13
2023-12-09T23:27:10.948Z,0.12
2023-12-09T23:29:05.446Z,0.10
2023-12-09T23:30:58.684Z,0.09
2023-12-09T23:32:52.552Z,0.07
2023-12-09T23:34:46.143Z,0.06
2023-12-09T23:36:39.850Z,0.04
2023-12-09T23:38:33.001Z,0.04
2023-12-09T23:40:26.139Z,0.02
2023-12-09T23:42:19.375Z,-0.00
2023-12-09T23:44:12.489Z,-0.03
2023-12-09T23:46:05.719Z,-0.04
2023-12-09T23:47:59.572Z,-0.07
2023-12-09T23:49:52.643Z,-0.09
2023-12-09T23:51:45.787Z,-0.11
2023-12-09T23:53:39.075Z,-0.14
2023-12-09T23:55:32.230Z,-0.17
2023-12-09T23:57:27.034Z,-0.18
2023-12-09T23:59:22.197Z,-0.20
